createdAt,value
2018-01-11T00:02:15.232Z,11.00
2018-01-11T00:04:43.165Z,8.80
2018-01-11T00:07:11.048Z,8.13
2018-01-11T00:09:38.986Z,9.63
2018-01-11T00:12:06.874Z,8.98
2018-01-11T00:14:34.791Z,7.85
2018-01-11T00:17:02.734Z,9.43
2018-01-11T00:19:32.507Z,11.20
2018-01-11T00:22:00.512Z,8.35
2018-01-11T00:24:29.431Z,8.20
2018-01-11T00:26:57.531Z,5.50
2018-01-11T00:29:25.477Z,6.75
2018-01-11T00:31:53.436Z,11.05
2018-01-11T00:34:21.373Z,6.43
2018-01-11T00:36:49.261Z,7.78
2018-01-11T00:39:17.209Z,11.57
2018-01-11T00:41:45.096Z,8.55
2018-01-11T00:44:13.032Z,7.10
2018-01-11T00:46:40.932Z,6.55
2018-01-11T00:49:08.877Z,6.37
2018-01-11T00:51:36.768Z,6.87
2018-01-11T00:54:04.722Z,6.32
2018-01-11T00:56:32.739Z,6.45
2018-01-11T00:59:01.336Z,8.88
2018-01-11T01:01:29.240Z,5.45
2018-01-11T01:03:57.135Z,6.60
2018-01-11T01:06:25.135Z,9.65
2018-01-11T01:08:53.081Z,6.60
2018-01-11T01:11:21.025Z,6.50
2018-01-11T01:13:48.911Z,6.62
2018-01-11T01:16:16.864Z,6.60
2018-01-11T01:18:44.757Z,10.35
2018-01-11T01:21:12.707Z,6.87
2018-01-11T01:23:41.164Z,6.85
2018-01-11T01:26:09.357Z,8.85
2018-01-11T01:28:37.238Z,8.18
2018-01-11T01:31:05.196Z,7.62
2018-01-11T01:33:33.080Z,7.32
2018-01-11T01:36:01.023Z,7.65
2018-01-11T01:38:28.956Z,6.70
2018-01-11T01:40:56.887Z,6.60
2018-01-11T01:43:24.816Z,6.37
2018-01-11T01:45:52.768Z,7.55
2018-01-11T01:48:32.479Z,8.50
2018-01-11T01:51:00.431Z,9.57
2018-01-11T01:53:28.332Z,12.32
2018-01-11T01:55:56.282Z,13.05
2018-01-11T01:58:24.183Z,10.40
2018-01-11T02:00:52.142Z,10.27
2018-01-11T02:03:20.046Z,10.40
2018-01-11T02:05:48.662Z,9.48
2018-01-11T02:08:16.687Z,10.13
2018-01-11T02:10:44.576Z,9.35
2018-01-11T02:13:12.526Z,9.90
2018-01-11T02:15:40.427Z,8.68
2018-01-11T02:18:08.364Z,10.45
2018-01-11T02:20:36.272Z,12.35
2018-01-11T02:23:04.216Z,10.95
2018-01-11T02:25:32.860Z,9.30
2018-01-11T02:28:00.814Z,9.60
2018-01-11T02:30:28.762Z,12.00
2018-01-11T02:32:56.693Z,10.95
2018-01-11T02:35:24.618Z,8.82
2018-01-11T02:37:52.685Z,14.23
2018-01-11T02:40:20.585Z,9.35
2018-01-11T02:42:48.542Z,11.15
2018-01-11T02:45:16.438Z,9.07
2018-01-11T02:47:44.388Z,8.75
2018-01-11T02:50:12.274Z,11.02
2018-01-11T02:52:40.223Z,11.10
2018-01-11T02:55:08.109Z,9.40
2018-01-11T02:57:36.071Z,9.00
2018-01-11T03:00:04.070Z,8.55
2018-01-11T03:02:32.799Z,7.90
2018-01-11T03:05:00.680Z,10.90
2018-01-11T03:07:28.643Z,10.25
2018-01-11T03:09:56.917Z,9.90
2018-01-11T03:12:24.903Z,11.68
2018-01-11T03:14:52.836Z,11.93
2018-01-11T03:17:20.728Z,10.60
2018-01-11T03:19:48.670Z,9.85
2018-01-11T03:22:16.597Z,8.80
2018-01-11T03:24:44.556Z,10.30
2018-01-11T03:27:12.462Z,9.77
2018-01-11T03:29:40.414Z,11.45
2018-01-11T03:32:08.323Z,10.25
2018-01-11T03:34:36.265Z,12.68
2018-01-11T03:37:04.236Z,12.85
2018-01-11T03:39:32.951Z,9.82
2018-01-11T03:42:00.842Z,11.32
2018-01-11T03:44:28.769Z,10.63
2018-01-11T03:46:57.453Z,9.85
2018-01-11T03:49:26.165Z,9.95
2018-01-11T03:51:54.060Z,11.43
2018-01-11T03:54:22.009Z,10.77
2018-01-11T03:56:49.911Z,12.05
2018-01-11T03:59:17.861Z,9.02
2018-01-11T04:01:45.756Z,12.52
2018-01-11T04:04:13.714Z,9.25
2018-01-11T04:06:41.704Z,10.10
2018-01-11T04:09:09.676Z,10.13
2018-01-11T04:11:37.566Z,11.32
2018-01-11T04:14:06.287Z,10.60
2018-01-11T04:16:34.182Z,11.52
2018-01-11T04:19:02.111Z,11.20
2018-01-11T04:21:30.043Z,11.48
2018-01-11T04:23:57.934Z,11.18
2018-01-11T04:26:30.039Z,13.35
2018-01-11T04:28:57.949Z,9.85
2018-01-11T04:31:25.899Z,9.70
2018-01-11T04:33:53.796Z,9.05
2018-01-11T04:36:22.945Z,12.95
2018-01-11T04:38:50.908Z,10.95
2018-01-11T04:41:18.856Z,12.48
2018-01-11T04:43:46.751Z,11.20
2018-01-11T04:46:14.722Z,11.88
2018-01-11T04:48:42.610Z,9.02
2018-01-11T04:51:10.547Z,12.32
2018-01-11T04:53:38.437Z,13.65
2018-01-11T04:56:06.395Z,14.05
2018-01-11T04:58:34.276Z,10.77
2018-01-11T05:01:02.217Z,12.35
2018-01-11T05:03:30.142Z,12.63
2018-01-11T05:05:58.267Z,16.50
2018-01-11T05:08:26.148Z,12.15
2018-01-11T05:10:54.096Z,13.20
2018-01-11T05:13:21.995Z,15.90
2018-01-11T05:15:49.933Z,14.82
2018-01-11T05:18:21.045Z,13.68
2018-01-11T05:20:53.404Z,14.02
2018-01-11T05:23:25.647Z,13.45
2018-01-11T05:25:58.111Z,14.98
2018-01-11T05:28:28.177Z,12.82
2018-01-11T05:30:59.146Z,12.57
2018-01-11T05:33:27.047Z,13.30
2018-01-11T05:35:54.934Z,12.90
2018-01-11T05:38:22.887Z,13.20
2018-01-11T05:40:50.781Z,14.55
2018-01-11T05:43:18.736Z,13.48
2018-01-11T05:45:46.638Z,13.88
2018-01-11T05:48:15.796Z,25.98
2018-01-11T05:50:43.691Z,14.85
2018-01-11T05:53:11.652Z,14.45
2018-01-11T05:55:39.553Z,13.75
2018-01-11T05:58:07.505Z,16.65
2018-01-11T06:00:35.400Z,17.58
2018-01-11T06:03:03.362Z,17.37
2018-01-11T06:05:31.272Z,18.98
2018-01-11T06:07:59.226Z,15.63
2018-01-11T06:10:27.139Z,18.50
2018-01-11T06:12:55.123Z,12.70
2018-01-11T06:15:23.015Z,12.15
2018-01-11T06:17:51.129Z,15.20
2018-01-11T06:20:19.020Z,12.50
2018-01-11T06:22:46.977Z,14.40
2018-01-11T06:25:14.869Z,13.50
2018-01-11T06:27:42.825Z,17.35
2018-01-11T06:30:10.738Z,12.18
2018-01-11T06:32:38.637Z,14.23
2018-01-11T06:35:06.572Z,10.95
2018-01-11T06:37:34.466Z,11.77
2018-01-11T06:40:02.416Z,15.75
2018-01-11T06:42:30.328Z,11.18
2018-01-11T06:44:58.267Z,17.17
2018-01-11T06:47:29.773Z,13.45
2018-01-11T06:49:57.717Z,17.62
2018-01-11T06:52:25.634Z,14.60
2018-01-11T06:54:54.366Z,15.90
2018-01-11T06:57:22.261Z,14.38
2018-01-11T06:59:50.213Z,12.37
2018-01-11T07:02:18.126Z,15.07
2018-01-11T07:04:46.136Z,12.85
2018-01-11T07:07:15.012Z,14.50
2018-01-11T07:09:42.956Z,13.07
2018-01-11T07:12:10.855Z,14.27
2018-01-11T07:14:38.864Z,14.23
2018-01-11T07:17:10.706Z,14.80
2018-01-11T07:19:38.648Z,11.70
2018-01-11T07:22:06.547Z,15.13
2018-01-11T07:24:34.512Z,12.40
2018-01-11T07:27:02.415Z,16.12
2018-01-11T07:29:30.384Z,12.82
2018-01-11T07:31:58.285Z,15.35
2018-01-11T07:34:26.240Z,16.62
2018-01-11T07:36:54.926Z,16.25
2018-01-11T07:39:23.653Z,21.58
2018-01-11T07:41:51.586Z,20.35
2018-01-11T07:44:19.537Z,20.67
2018-01-11T07:46:47.629Z,16.42
2018-01-11T07:49:15.617Z,20.15
2018-01-11T07:51:43.538Z,19.30
2018-01-11T07:54:11.494Z,17.10
2018-01-11T07:56:39.406Z,16.00
2018-01-11T07:59:08.125Z,18.10
2018-01-11T08:01:36.028Z,17.42
2018-01-11T08:04:03.970Z,15.35
2018-01-11T08:06:31.882Z,15.50
2018-01-11T08:08:59.864Z,13.15
2018-01-11T08:11:27.773Z,17.33
2018-01-11T08:13:55.768Z,15.07
2018-01-11T08:16:23.790Z,14.87
2018-01-11T08:18:52.526Z,14.23
2018-01-11T08:21:20.451Z,15.45
2018-01-11T08:23:48.402Z,16.33
2018-01-11T08:26:16.327Z,17.27
2018-01-11T08:28:44.285Z,16.12
2018-01-11T08:31:12.239Z,18.62
2018-01-11T08:33:40.198Z,14.32
2018-01-11T08:36:08.110Z,17.50
2018-01-11T08:38:36.066Z,19.05
2018-01-11T08:41:03.965Z,20.25
2018-01-11T08:43:31.939Z,22.77
2018-01-11T08:46:00.045Z,19.90
2018-01-11T08:48:28.769Z,18.65
2018-01-11T08:50:56.665Z,19.50
2018-01-11T08:53:24.615Z,19.00
2018-01-11T08:55:52.535Z,19.85
2018-01-11T08:58:21.263Z,18.37
2018-01-11T09:00:49.164Z,16.25
2018-01-11T09:03:17.073Z,18.95
2018-01-11T09:05:45.803Z,17.20
2018-01-11T09:08:13.918Z,15.95
2018-01-11T09:10:42.648Z,17.30
2018-01-11T09:13:10.551Z,17.05
2018-01-11T09:15:38.505Z,13.20
2018-01-11T09:18:06.402Z,17.45
2018-01-11T09:20:34.353Z,18.00
2018-01-11T09:23:02.246Z,14.93
2018-01-11T09:25:30.207Z,15.73
2018-01-11T09:27:58.125Z,16.35
2018-01-11T09:30:26.073Z,17.25
2018-01-11T09:32:54.006Z,14.82
2018-01-11T09:35:21.960Z,16.70
2018-01-11T09:37:53.884Z,15.80
2018-01-11T09:40:21.841Z,17.70
2018-01-11T09:42:49.740Z,14.98
2018-01-11T09:45:17.701Z,13.65
2018-01-11T09:47:45.612Z,15.32
2018-01-11T09:50:13.587Z,13.48
2018-01-11T09:52:41.496Z,18.52
2018-01-11T09:55:09.469Z,16.87
2018-01-11T09:57:38.142Z,14.05
2018-01-11T10:00:06.885Z,14.40
2018-01-11T10:02:34.786Z,13.75
2018-01-11T10:05:02.814Z,12.82
2018-01-11T10:07:31.970Z,15.75
2018-01-11T10:10:00.710Z,17.10
2018-01-11T10:12:28.633Z,14.30
2018-01-11T10:14:57.362Z,15.70
2018-01-11T10:17:25.263Z,15.55
2018-01-11T10:19:53.206Z,14.30
2018-01-11T10:22:21.101Z,17.40
2018-01-11T10:24:49.098Z,18.15
2018-01-11T10:27:17.761Z,18.17
2018-01-11T10:29:45.696Z,18.37
2018-01-11T10:32:13.597Z,18.87
2018-01-11T10:34:42.532Z,18.05
2018-01-11T10:37:10.557Z,18.92
2018-01-11T10:39:43.054Z,22.10
2018-01-11T10:42:10.959Z,19.75
2018-01-11T10:44:38.905Z,19.95
2018-01-11T10:47:07.544Z,21.20
2018-01-11T10:49:35.657Z,22.35
2018-01-11T10:52:04.344Z,18.90
2018-01-11T10:54:33.058Z,19.40
2018-01-11T10:57:01.076Z,29.33
2018-01-11T10:59:29.132Z,25.25
2018-01-11T11:02:02.505Z,21.35
2018-01-11T11:04:30.521Z,19.27
2018-01-11T11:06:58.488Z,19.25
2018-01-11T11:09:26.443Z,16.90
2018-01-11T11:11:58.705Z,23.40
2018-01-11T11:14:29.642Z,19.05
2018-01-11T11:16:57.556Z,19.95
2018-01-11T11:19:26.298Z,22.50
2018-01-11T11:21:56.621Z,22.73
2018-01-11T11:24:24.577Z,21.40
2018-01-11T11:26:52.477Z,18.05
2018-01-11T11:29:20.555Z,20.02
2018-01-11T11:31:48.459Z,18.55
2018-01-11T11:34:18.795Z,25.50
2018-01-11T11:36:48.823Z,18.37
2018-01-11T11:39:19.005Z,17.90
2018-01-11T11:41:48.312Z,20.60
2018-01-11T11:44:19.660Z,18.08
2018-01-11T11:46:52.498Z,22.77
2018-01-11T11:49:23.512Z,17.17
2018-01-11T11:51:55.442Z,16.92
2018-01-11T11:54:25.818Z,17.55
2018-01-11T11:56:55.926Z,17.33
2018-01-11T11:59:26.417Z,18.05
2018-01-11T12:01:56.747Z,16.30
2018-01-11T12:04:27.008Z,14.95
2018-01-11T12:06:57.024Z,15.85
2018-01-11T12:09:27.608Z,16.45
2018-01-11T12:11:56.759Z,15.60
2018-01-11T12:14:27.118Z,15.25
2018-01-11T12:16:56.956Z,14.70
2018-01-11T12:19:28.052Z,13.40
2018-01-11T12:21:58.771Z,13.35
2018-01-11T12:24:29.235Z,12.57
2018-01-11T12:27:00.963Z,15.45
2018-01-11T12:29:31.056Z,16.62
2018-01-11T12:31:59.775Z,15.80
2018-01-11T12:34:27.787Z,14.27
2018-01-11T12:36:55.741Z,11.98
2018-01-11T12:39:25.014Z,13.32
2018-01-11T12:41:57.055Z,13.50
2018-01-11T12:44:28.118Z,14.57
2018-01-11T12:46:59.048Z,13.65
2018-01-11T12:49:29.245Z,15.38
2018-01-11T12:51:59.683Z,15.20
2018-01-11T12:54:29.917Z,12.13
2018-01-11T12:56:59.689Z,12.98
2018-01-11T12:59:30.328Z,12.25
2018-01-11T13:02:00.913Z,11.40
2018-01-11T13:04:31.416Z,11.02
2018-01-11T13:07:02.506Z,15.55
2018-01-11T13:09:32.639Z,14.90
2018-01-11T13:12:02.323Z,15.45
2018-01-11T13:14:33.813Z,15.93
2018-01-11T13:17:02.511Z,15.70
2018-01-11T13:19:33.633Z,17.48
2018-01-11T13:22:03.951Z,17.00
2018-01-11T13:24:33.949Z,14.05
2018-01-11T13:27:11.417Z,12.20
2018-01-11T13:29:43.841Z,11.93
2018-01-11T13:32:12.884Z,14.77
2018-01-11T13:34:43.973Z,15.23
2018-01-11T13:37:16.867Z,15.00
2018-01-11T13:39:47.375Z,12.32
2018-01-11T13:42:17.723Z,12.40
2018-01-11T13:44:45.675Z,12.98
2018-01-11T13:47:14.978Z,16.17
2018-01-11T13:49:43.356Z,16.05
2018-01-11T13:52:11.342Z,12.18
2018-01-11T13:54:39.309Z,14.70
2018-01-11T13:57:20.293Z,14.60
2018-01-11T13:59:50.583Z,11.95
2018-01-11T14:02:18.486Z,12.77
2018-01-11T14:04:48.961Z,35.42
2018-01-11T14:07:20.258Z,22.27
2018-01-11T14:09:51.345Z,12.80
2018-01-11T14:12:22.330Z,12.10
2018-01-11T14:14:50.256Z,11.98
2018-01-11T14:17:18.915Z,9.65
2018-01-11T14:19:46.874Z,12.68
2018-01-11T14:22:14.756Z,10.40
2018-01-11T14:24:42.645Z,14.00
2018-01-11T14:27:10.593Z,15.50
2018-01-11T14:29:39.169Z,11.18
2018-01-11T14:32:07.792Z,12.37
2018-01-11T14:34:36.494Z,10.23
2018-01-11T14:37:04.444Z,11.18
2018-01-11T14:39:32.337Z,10.43
2018-01-11T14:42:00.270Z,11.50
2018-01-11T14:44:28.168Z,11.57
2018-01-11T14:46:59.749Z,13.07
2018-01-11T14:49:27.690Z,11.02
2018-01-11T14:51:56.416Z,12.82
2018-01-11T14:54:24.304Z,12.45
2018-01-11T14:56:52.257Z,12.77
2018-01-11T14:59:20.963Z,13.27
2018-01-11T15:01:48.917Z,12.43
2018-01-11T15:04:17.829Z,12.75
2018-01-11T15:06:45.775Z,11.70
2018-01-11T15:09:13.674Z,13.43
2018-01-11T15:11:41.645Z,13.18
2018-01-11T15:14:09.554Z,14.90
2018-01-11T15:16:41.246Z,15.02
2018-01-11T15:19:09.184Z,13.45
2018-01-11T15:21:37.174Z,13.48
2018-01-11T15:24:05.081Z,14.65
2018-01-11T15:26:33.039Z,10.27
2018-01-11T15:29:00.940Z,11.82
2018-01-11T15:31:29.670Z,12.73
2018-01-11T15:33:57.586Z,14.60
2018-01-11T15:36:25.539Z,17.10
2018-01-11T15:38:53.457Z,16.33
2018-01-11T15:41:21.409Z,15.70
2018-01-11T15:43:49.310Z,11.50
2018-01-11T15:46:17.497Z,24.75
2018-01-11T15:48:45.413Z,11.40
2018-01-11T15:51:13.355Z,11.57
2018-01-11T15:53:41.256Z,18.92
2018-01-11T15:56:09.969Z,21.58
2018-01-11T15:58:37.881Z,14.55
2018-01-11T16:01:05.850Z,12.55
2018-01-11T16:03:33.765Z,13.15
2018-01-11T16:06:01.730Z,13.93
2018-01-11T16:08:30.401Z,16.95
2018-01-11T16:10:58.372Z,12.37
2018-01-11T16:13:26.264Z,13.00
2018-01-11T16:15:54.230Z,10.95
2018-01-11T16:18:22.126Z,14.10
2018-01-11T16:20:50.092Z,15.52
2018-01-11T16:23:18.000Z,12.43
2018-01-11T16:25:45.931Z,13.05
2018-01-11T16:28:13.828Z,11.02
2018-01-11T16:30:41.765Z,10.88
2018-01-11T16:33:09.681Z,13.75
2018-01-11T16:35:37.672Z,14.05
2018-01-11T16:38:05.756Z,12.65
2018-01-11T16:40:33.723Z,12.18
2018-01-11T16:43:01.604Z,10.88
2018-01-11T16:45:29.601Z,11.27
2018-01-11T16:47:57.510Z,14.15
2018-01-11T16:50:25.404Z,12.82
2018-01-11T16:52:53.372Z,14.48
2018-01-11T16:55:21.275Z,16.05
2018-01-11T16:57:49.240Z,16.62
2018-01-11T17:00:17.141Z,13.20
2018-01-11T17:02:45.178Z,14.10
2018-01-11T17:05:13.087Z,19.25
2018-01-11T17:07:41.139Z,18.77
2018-01-11T17:10:09.049Z,15.98
2018-01-11T17:12:37.013Z,19.87
2018-01-11T17:15:05.692Z,14.10
2018-01-11T17:17:33.702Z,13.85
2018-01-11T17:20:01.639Z,14.38
2018-01-11T17:22:29.587Z,15.13
2018-01-11T17:24:57.496Z,14.40
2018-01-11T17:27:25.504Z,37.55
2018-01-11T17:29:53.436Z,59.95
2018-01-11T17:32:24.055Z,50.95
2018-01-11T17:34:52.164Z,59.97
2018-01-11T17:37:24.359Z,40.40
2018-01-11T17:39:53.226Z,25.37
2018-01-11T17:42:21.388Z,23.20
2018-01-11T17:44:49.435Z,25.85
2018-01-11T17:47:17.403Z,26.35
2018-01-11T17:49:45.350Z,20.58
2018-01-11T17:52:13.309Z,23.58
2018-01-11T17:54:41.215Z,30.88
2018-01-11T17:57:10.067Z,24.85
2018-01-11T17:59:40.705Z,28.92
2018-01-11T18:02:09.490Z,33.97
2018-01-11T18:04:37.599Z,31.73
2018-01-11T18:07:10.851Z,31.02
2018-01-11T18:09:38.768Z,29.30
2018-01-11T18:12:06.742Z,26.98
2018-01-11T18:14:34.650Z,31.23
2018-01-11T18:17:02.632Z,24.60
2018-01-11T18:19:30.516Z,25.88
2018-01-11T18:21:58.729Z,24.63
2018-01-11T18:24:26.653Z,22.45
2018-01-11T18:26:54.659Z,21.95
2018-01-11T18:29:23.333Z,22.02
2018-01-11T18:31:51.300Z,31.33
2018-01-11T18:34:19.222Z,21.70
2018-01-11T18:36:47.316Z,24.90
2018-01-11T18:39:15.318Z,21.25
2018-01-11T18:41:43.312Z,24.25
2018-01-11T18:44:11.985Z,24.15
2018-01-11T18:46:40.727Z,21.35
2018-01-11T18:49:08.643Z,22.65
2018-01-11T18:51:40.548Z,20.65
2018-01-11T18:54:09.340Z,17.60
2018-01-11T18:56:37.416Z,18.45
2018-01-11T18:59:08.779Z,18.25
2018-01-11T19:01:36.769Z,19.87
2018-01-11T19:04:04.684Z,18.00
2018-01-11T19:06:32.847Z,19.85
2018-01-11T19:09:00.760Z,19.33
2018-01-11T19:11:29.361Z,21.25
2018-01-11T19:13:57.290Z,25.65
2018-01-11T19:16:25.280Z,29.58
2018-01-11T19:18:53.314Z,26.83
2018-01-11T19:21:21.330Z,23.35
2018-01-11T19:23:49.250Z,21.17
2018-01-11T19:26:20.841Z,22.80
2018-01-11T19:28:48.886Z,21.52
2018-01-11T19:31:16.791Z,22.13
2018-01-11T19:33:44.754Z,21.35
2018-01-11T19:36:13.753Z,18.95
2018-01-11T19:38:42.071Z,25.67
2018-01-11T19:41:10.348Z,22.95
2018-01-11T19:43:38.258Z,26.02
2018-01-11T19:46:06.201Z,25.67
2018-01-11T19:48:36.034Z,24.75
2018-01-11T19:51:04.263Z,27.67
2018-01-11T19:53:32.241Z,29.87
2018-01-11T19:56:00.320Z,34.13
2018-01-11T19:58:28.342Z,40.83
2018-01-11T20:00:56.731Z,35.03
2018-01-11T20:03:24.742Z,32.30
2018-01-11T20:05:54.545Z,30.37
2018-01-11T20:08:23.080Z,35.78
2018-01-11T20:10:51.866Z,30.70
2018-01-11T20:13:20.593Z,36.72
2018-01-11T20:15:49.455Z,36.20
2018-01-11T20:18:18.335Z,41.47
2018-01-11T20:20:47.276Z,31.42
2018-01-11T20:23:16.119Z,40.75
2018-01-11T20:25:45.297Z,35.13
2018-01-11T20:28:13.886Z,31.62
2018-01-11T20:30:43.544Z,25.65
2018-01-11T20:33:12.321Z,31.00
2018-01-11T20:35:40.722Z,26.80
2018-01-11T20:38:09.078Z,46.00
2018-01-11T20:40:37.611Z,31.17
2018-01-11T20:43:07.014Z,31.30
2018-01-11T20:45:36.164Z,31.62
2018-01-11T20:48:04.915Z,30.65
2018-01-11T20:50:34.939Z,28.50
2018-01-11T20:53:04.069Z,27.65
2018-01-11T20:55:33.195Z,28.02
2018-01-11T20:58:02.656Z,28.12
2018-01-11T21:00:32.169Z,26.17
2018-01-11T21:03:00.236Z,28.27
2018-01-11T21:05:28.186Z,25.85
2018-01-11T21:07:56.318Z,27.85
2018-01-11T21:10:24.269Z,23.50
2018-01-11T21:12:52.251Z,33.58
2018-01-11T21:15:20.182Z,25.73
2018-01-11T21:17:48.165Z,22.30
2018-01-11T21:20:16.072Z,32.72
2018-01-11T21:22:44.061Z,29.73
2018-01-11T21:25:12.817Z,28.10
2018-01-11T21:27:40.833Z,35.00
2018-01-11T21:30:08.820Z,30.45
2018-01-11T21:32:36.841Z,28.85
2018-01-11T21:35:04.740Z,29.27
2018-01-11T21:37:33.482Z,34.42
2018-01-11T21:40:01.409Z,35.67
2018-01-11T21:42:29.450Z,34.85
2018-01-11T21:44:59.263Z,30.15
2018-01-11T21:47:27.561Z,27.37
2018-01-11T21:49:59.887Z,39.45
2018-01-11T21:52:28.021Z,52.72
2018-01-11T21:54:55.956Z,40.53
2018-01-11T21:57:24.683Z,40.83
2018-01-11T21:59:56.210Z,38.97
2018-01-11T22:02:28.225Z,41.60
2018-01-11T22:04:56.318Z,38.85
2018-01-11T22:07:25.356Z,39.85
2018-01-11T22:09:53.266Z,35.67
2018-01-11T22:12:21.221Z,35.20
2018-01-11T22:14:49.142Z,25.88
2018-01-11T22:17:17.128Z,30.50
2018-01-11T22:19:45.097Z,34.70
2018-01-11T22:22:13.042Z,27.33
2018-01-11T22:24:40.990Z,21.62
2018-01-11T22:27:08.949Z,21.58
2018-01-11T22:29:36.858Z,22.77
2018-01-11T22:32:04.828Z,19.25
2018-01-11T22:34:32.734Z,19.42
2018-01-11T22:37:01.873Z,18.62
2018-01-11T22:39:29.795Z,19.60
2018-01-11T22:41:58.711Z,17.50
2018-01-11T22:44:27.303Z,19.40
2018-01-11T22:46:57.534Z,18.20
2018-01-11T22:49:26.355Z,24.92
2018-01-11T22:51:54.795Z,19.65
2018-01-11T22:54:22.939Z,25.98
2018-01-11T22:56:51.426Z,24.58
2018-01-11T22:59:19.576Z,21.27
2018-01-11T23:01:48.267Z,21.42
2018-01-11T23:04:16.261Z,26.45
2018-01-11T23:06:44.178Z,18.00
2018-01-11T23:09:12.124Z,19.52
2018-01-11T23:11:43.800Z,21.58
2018-01-11T23:14:11.784Z,21.40
2018-01-11T23:16:39.679Z,21.00
2018-01-11T23:19:07.694Z,23.65
2018-01-11T23:21:35.628Z,23.83
2018-01-11T23:24:03.592Z,30.75
2018-01-11T23:26:31.573Z,23.02
2018-01-11T23:28:59.543Z,29.75
2018-01-11T23:31:27.491Z,30.52
2018-01-11T23:33:56.246Z,28.33
2018-01-11T23:36:24.172Z,28.33
2018-01-11T23:38:52.147Z,30.60
2018-01-11T23:41:20.051Z,32.58
2018-01-11T23:43:47.978Z,32.10
2018-01-11T23:46:15.966Z,31.33
2018-01-11T23:48:43.964Z,30.40
2018-01-11T23:51:11.889Z,32.20
2018-01-11T23:53:39.849Z,30.65
2018-01-11T23:56:10.144Z,29.37
2018-01-11T23:58:42.030Z,34.67
